Time;durP1;ratioP1;P1;durP2;ratioP2;P2;SDS_P1;SDS_P2;PMS_P1;PMS_P2;Temp;Humidity;BMP_temperature;BMP_pressure;BME280_temperature;BME280_humidity;BME280_pressure;Samples;Min_cycle;Max_cycle;Signal;HPM_P1;HPM_P2
2021/12/12 00:02:20;;;;;;;152.90;63.78;;;3.50;99.90;;;;;;4939709;29;20048;-86
2021/12/12 00:04:47;;;;;;;149.60;67.35;;;3.60;99.90;;;;;;4978387;28;20518;-86
2021/12/12 00:07:21;;;;;;;159.10;67.53;;;3.70;99.90;;;;;;4978457;28;20090;-86
2021/12/12 00:09:50;;;;;;;177.02;71.80;;;3.60;99.90;;;;;;4978081;28;20154;-87
2021/12/12 00:12:23;;;;;;;160.02;67.80;;;3.60;99.90;;;;;;4968107;28;20069;-87
2021/12/12 00:14:49;;;;;;;150.02;65.97;;;3.60;99.90;;;;;;4957821;29;20086;-87
2021/12/12 00:17:16;;;;;;;148.02;66.28;;;3.60;99.90;;;;;;4957863;29;20094;-87
2021/12/12 00:19:42;;;;;;;145.45;65.25;;;3.60;99.90;;;;;;4942397;29;20035;-87
2021/12/12 00:22:12;;;;;;;164.80;70.45;;;3.60;99.90;;;;;;4941512;29;20098;-86
2021/12/12 00:24:39;;;;;;;148.38;68.30;;;3.60;99.90;;;;;;4958554;29;20050;-86
2021/12/12 00:27:07;;;;;;;132.65;61.05;;;4.30;99.90;;;;;;4954421;28;20046;-86
2021/12/12 00:29:34;;;;;;;141.00;62.13;;;3.70;99.90;;;;;;4977104;28;20043;-86
2021/12/12 00:32:03;;;;;;;141.20;63.58;;;3.70;99.90;;;;;;4977993;28;20043;-86
2021/12/12 00:34:34;;;;;;;129.35;59.45;;;3.70;99.90;;;;;;4977856;28;20106;-86
2021/12/12 00:37:01;;;;;;;140.38;63.60;;;3.70;99.90;;;;;;4963982;28;20039;-86
2021/12/12 00:39:33;;;;;;;123.97;57.85;;;3.70;99.90;;;;;;4939505;29;20035;-86
2021/12/12 00:42:16;;;;;;;101.93;47.50;;;3.70;99.90;;;;;;4938026;29;20432;-86
2021/12/12 00:44:47;;;;;;;127.70;58.88;;;3.70;99.90;;;;;;4950358;29;20051;-86
2021/12/12 00:47:13;;;;;;;119.13;58.47;;;3.70;99.90;;;;;;4974708;28;20105;-86
2021/12/12 00:49:42;;;;;;;114.72;55.00;;;4.10;99.90;;;;;;4958616;29;20466;-86
2021/12/12 00:52:11;;;;;;;114.65;58.03;;;3.70;99.90;;;;;;4958309;29;20043;-86
2021/12/12 00:54:39;;;;;;;109.80;56.58;;;4.70;99.90;;;;;;4960953;28;20054;-86
2021/12/12 00:57:08;;;;;;;120.15;57.65;;;3.80;99.90;;;;;;4945197;29;20110;-86
2021/12/12 00:59:35;;;;;;;103.28;54.60;;;3.70;99.90;;;;;;4961750;29;20040;-86
2021/12/12 01:02:04;;;;;;;125.70;57.28;;;3.70;99.90;;;;;;4945958;29;20070;-86
2021/12/12 01:04:35;;;;;;;102.53;51.67;;;3.70;99.90;;;;;;4978462;28;20055;-86
2021/12/12 01:07:05;;;;;;;110.88;54.22;;;4.00;99.90;;;;;;4978857;28;20058;-86
2021/12/12 01:09:38;;;;;;;113.47;55.28;;;3.80;99.90;;;;;;4977774;28;20047;-86
2021/12/12 01:12:10;;;;;;;110.70;57.35;;;3.80;99.90;;;;;;4960868;29;20047;-86
2021/12/12 01:14:41;;;;;;;115.22;56.30;;;3.80;99.90;;;;;;4946308;29;20151;-86
2021/12/12 01:17:10;;;;;;;115.43;57.15;;;3.80;99.90;;;;;;4974763;28;20035;-86
2021/12/12 01:19:53;;;;;;;115.97;55.60;;;3.90;99.90;;;;;;4979879;28;20035;-86
2021/12/12 01:22:28;;;;;;;105.43;54.08;;;3.80;99.90;;;;;;4980827;28;20042;-86
2021/12/12 01:24:57;;;;;;;110.10;52.53;;;3.80;99.90;;;;;;4965571;28;20502;-86
2021/12/12 01:27:24;;;;;;;121.10;56.50;;;3.80;99.90;;;;;;4960651;29;20102;-86
2021/12/12 01:29:50;;;;;;;101.78;54.30;;;3.80;99.90;;;;;;4965107;28;20414;-86
2021/12/12 01:32:25;;;;;;;107.03;52.63;;;4.00;99.90;;;;;;4980849;28;20047;-86
2021/12/12 01:34:52;;;;;;;107.88;52.20;;;3.80;99.90;;;;;;4966580;28;20126;-86
2021/12/12 01:39:49;;;;;;;112.93;55.30;;;3.90;99.90;;;;;;4941492;29;20046;-86
2021/12/12 01:42:33;;;;;;;92.50;48.75;;;3.90;99.90;;;;;;4941255;29;20043;-86
2021/12/12 01:45:10;;;;;;;99.50;51.33;;;3.90;99.90;;;;;;4926106;29;20054;-86
2021/12/12 01:48:11;;;;;;;99.57;50.75;;;3.90;99.90;;;;;;4943580;29;20125;-87
2021/12/12 01:50:41;;;;;;;101.75;50.97;;;3.90;99.90;;;;;;4951153;29;20123;-87
2021/12/12 01:53:09;;;;;;;99.40;48.15;;;3.90;99.90;;;;;;4960555;29;20392;-86
2021/12/12 01:55:45;;;;;;;105.90;51.08;;;3.90;99.90;;;;;;4944250;29;20043;-86
2021/12/12 01:58:16;;;;;;;104.43;51.60;;;3.90;99.90;;;;;;4957257;29;20063;-86
2021/12/12 02:00:49;;;;;;;104.25;51.45;;;3.90;99.90;;;;;;4934569;29;20066;-86
2021/12/12 02:03:19;;;;;;;91.95;46.92;;;4.30;99.90;;;;;;4960597;28;20059;-86
2021/12/12 02:05:46;;;;;;;95.88;49.38;;;4.30;99.90;;;;;;4973395;28;20049;-86
2021/12/12 02:08:16;;;;;;;84.68;47.20;;;3.90;99.90;;;;;;4960965;28;20069;-86
2021/12/12 02:10:59;;;;;;;98.55;49.55;;;3.90;99.90;;;;;;4979105;28;20069;-86
2021/12/12 02:13:27;;;;;;;93.95;49.45;;;4.00;99.90;;;;;;4979490;28;20042;-86
2021/12/12 02:15:56;;;;;;;89.05;47.90;;;3.90;99.90;;;;;;4979741;28;20117;-86
2021/12/12 02:18:28;;;;;;;91.30;47.80;;;3.90;99.90;;;;;;4980693;28;20049;-86
2021/12/12 02:21:08;;;;;;;;;;;4.00;99.90;;;;;;4981568;28;20039;-86
2021/12/12 02:24:13;;;;;;;77.35;43.15;;;4.00;99.90;;;;;;4965316;28;19925;-86
2021/12/12 02:35:13;;;;;;;86.28;47.65;;;4.10;99.90;;;;;;4963794;29;20134;-86
2021/12/12 02:37:40;;;;;;;80.03;42.60;;;4.00;99.90;;;;;;4939500;29;20039;-86
2021/12/12 02:40:11;;;;;;;83.65;44.88;;;4.10;99.90;;;;;;4948405;29;20043;-85
2021/12/12 02:42:38;;;;;;;83.70;45.20;;;4.10;99.90;;;;;;4974968;28;20045;-85
2021/12/12 02:45:08;;;;;;;75.82;42.08;;;4.00;99.90;;;;;;4966778;28;20051;-85
2021/12/12 02:47:35;;;;;;;84.88;42.92;;;4.10;99.90;;;;;;4983176;28;20133;-85
2021/12/12 02:50:13;;;;;;;89.43;46.10;;;4.10;99.90;;;;;;4967937;28;20057;-85
2021/12/12 02:52:46;;;;;;;86.55;44.05;;;4.20;99.90;;;;;;4968374;28;20042;-85
2021/12/12 02:55:23;;;;;;;70.88;40.65;;;4.10;99.90;;;;;;4966499;28;20043;-85
2021/12/12 02:57:51;;;;;;;93.78;45.90;;;4.40;99.90;;;;;;4967434;28;20078;-85
2021/12/12 03:00:21;;;;;;;80.22;41.92;;;4.30;99.90;;;;;;4981923;28;20106;-85
2021/12/12 03:02:56;;;;;;;69.20;36.67;;;4.10;99.90;;;;;;4983331;28;20486;-85
2021/12/12 03:05:23;;;;;;;76.65;39.67;;;4.80;99.90;;;;;;4967251;28;20379;-85
2021/12/12 03:07:49;;;;;;;78.38;39.08;;;4.10;99.90;;;;;;4965899;28;20043;-85
2021/12/12 03:10:20;;;;;;;71.28;38.50;;;4.10;99.90;;;;;;4966210;28;20050;-85
2021/12/12 03:12:46;;;;;;;78.45;39.65;;;4.20;99.90;;;;;;4966957;28;20422;-85
2021/12/12 03:15:17;;;;;;;79.03;40.03;;;4.20;99.90;;;;;;4962688;29;20053;-85
2021/12/12 03:17:45;;;;;;;68.28;37.30;;;4.20;99.90;;;;;;4962544;28;20043;-85
2021/12/12 03:20:39;;;;;;;66.07;36.42;;;4.70;99.90;;;;;;4946069;29;20039;-85
2021/12/12 03:23:27;;;;;;;68.80;38.85;;;4.20;99.90;;;;;;4944238;29;20083;-85
2021/12/12 03:25:57;;;;;;;69.00;37.08;;;4.20;99.90;;;;;;4968325;28;20043;-85
2021/12/12 03:28:27;;;;;;;66.88;35.70;;;4.20;99.90;;;;;;4945759;29;20133;-85
2021/12/12 03:30:55;;;;;;;60.78;31.65;;;4.30;99.90;;;;;;4961037;29;20106;-85
2021/12/12 03:33:21;;;;;;;75.68;39.25;;;4.30;99.90;;;;;;4964366;28;20045;-85
2021/12/12 03:35:50;;;;;;;75.75;38.92;;;4.30;99.90;;;;;;4964203;28;20046;-85
2021/12/12 03:38:17;;;;;;;73.43;40.60;;;4.30;99.90;;;;;;4995987;28;20093;-85
2021/12/12 03:40:44;;;;;;;65.30;35.95;;;4.30;99.90;;;;;;4979270;28;20042;-85
2021/12/12 03:43:12;;;;;;;68.80;35.55;;;4.30;99.90;;;;;;4979524;28;20043;-85
2021/12/12 03:45:39;;;;;;;72.43;36.60;;;4.50;99.90;;;;;;4979805;28;20048;-85
2021/12/12 03:48:25;;;;;;;66.30;36.55;;;4.40;99.90;;;;;;4963676;28;20046;-85
2021/12/12 03:50:54;;;;;;;58.67;31.95;;;4.40;99.90;;;;;;4961752;28;20388;-85
2021/12/12 03:53:20;;;;;;;65.40;36.17;;;4.40;99.90;;;;;;4962448;28;20113;-85
2021/12/12 03:55:48;;;;;;;76.72;37.95;;;4.40;99.90;;;;;;4961926;28;20442;-85
2021/12/12 03:58:15;;;;;;;53.55;32.10;;;4.40;99.90;;;;;;4962613;28;20498;-85
2021/12/12 04:00:46;;;;;;;58.53;33.83;;;4.40;99.90;;;;;;4963028;28;20055;-85
2021/12/12 04:03:13;;;;;;;61.80;33.53;;;4.50;99.90;;;;;;4979704;28;20051;-85
2021/12/12 04:05:39;;;;;;;68.00;36.75;;;4.50;99.90;;;;;;4979135;28;20078;-85
2021/12/12 04:08:05;;;;;;;73.28;36.95;;;4.40;99.90;;;;;;4978199;28;20039;-85
2021/12/12 04:10:32;;;;;;;69.15;36.00;;;4.70;99.90;;;;;;4977791;28;20051;-85
2021/12/12 04:12:58;;;;;;;55.50;32.13;;;4.50;99.90;;;;;;4950528;28;20102;-85
2021/12/12 04:15:24;;;;;;;60.38;33.78;;;4.50;99.90;;;;;;4962877;28;20039;-85
2021/12/12 04:17:50;;;;;;;56.60;29.67;;;4.70;99.90;;;;;;4979939;28;20035;-85
2021/12/12 04:20:29;;;;;;;51.10;31.15;;;4.60;99.90;;;;;;4979445;28;20039;-85
2021/12/12 04:22:55;;;;;;;51.78;29.70;;;4.60;99.90;;;;;;4960902;28;20040;-85
2021/12/12 04:25:22;;;;;;;56.10;31.20;;;4.60;99.90;;;;;;4939174;29;20142;-85
2021/12/12 04:27:49;;;;;;;43.05;27.13;;;4.70;99.90;;;;;;4941411;29;20043;-85
2021/12/12 04:30:16;;;;;;;50.90;30.08;;;4.70;99.90;;;;;;4943199;29;20538;-85
2021/12/12 04:32:43;;;;;;;51.53;27.55;;;4.60;99.90;;;;;;4967231;28;20058;-85
2021/12/12 04:35:20;;;;;;;48.75;28.83;;;4.60;99.90;;;;;;4962280;29;20047;-85
2021/12/12 04:37:47;;;;;;;51.35;29.63;;;5.20;99.90;;;;;;4962863;29;20074;-85
2021/12/12 04:40:16;;;;;;;44.42;25.90;;;4.70;99.90;;;;;;4930527;29;20043;-85
2021/12/12 04:42:43;;;;;;;49.92;27.50;;;4.70;99.90;;;;;;4962566;29;20046;-85
2021/12/12 04:45:18;;;;;;;49.47;27.10;;;4.70;99.90;;;;;;4962601;29;20047;-85
2021/12/12 04:50:54;;;;;;;52.42;30.42;;;4.70;99.90;;;;;;4963164;29;20043;-85
2021/12/12 04:53:48;;;;;;;45.63;28.13;;;4.60;99.90;;;;;;4962712;29;20079;-85
2021/12/12 04:56:43;;;;;;;45.67;26.60;;;4.70;99.90;;;;;;4957299;29;20503;-85
2021/12/12 04:59:33;;;;;;;47.17;26.88;;;4.70;99.90;;;;;;4913767;29;20082;-85
2021/12/12 05:02:07;;;;;;;48.08;27.08;;;4.70;99.90;;;;;;4957436;28;20090;-85
2021/12/12 05:04:56;;;;;;;40.05;23.80;;;4.70;99.90;;;;;;4981399;28;20043;-85
2021/12/12 05:07:38;;;;;;;47.67;27.02;;;4.80;99.90;;;;;;4981966;28;20046;-85
2021/12/12 05:10:34;;;;;;;46.90;25.77;;;4.80;99.90;;;;;;4997418;28;20042;-85
2021/12/12 05:13:17;;;;;;;44.03;26.15;;;4.80;99.90;;;;;;4962336;28;20082;-85
2021/12/12 05:16:00;;;;;;;38.22;24.30;;;4.80;99.90;;;;;;4966147;28;20045;-85
2021/12/12 05:18:34;;;;;;;40.15;25.35;;;4.80;99.90;;;;;;4966514;28;20531;-85
2021/12/12 05:21:10;;;;;;;39.13;22.33;;;4.80;99.90;;;;;;4982930;28;20031;-85
2021/12/12 05:23:40;;;;;;;40.13;25.42;;;4.80;99.90;;;;;;4966937;28;20050;-85
2021/12/12 05:26:12;;;;;;;38.03;23.05;;;4.90;99.90;;;;;;4980566;28;20406;-85
2021/12/12 05:28:43;;;;;;;33.10;22.10;;;4.90;99.90;;;;;;4982945;28;20039;-85
2021/12/12 05:31:11;;;;;;;32.00;19.30;;;4.90;99.90;;;;;;4966985;28;20038;-85
2021/12/12 05:33:38;;;;;;;29.15;17.95;;;4.90;99.90;;;;;;4965691;28;20073;-85
2021/12/12 05:36:08;;;;;;;30.90;20.52;;;5.00;99.90;;;;;;4965844;28;20126;-85
2021/12/12 05:38:34;;;;;;;34.38;22.17;;;4.90;99.90;;;;;;4982093;28;20046;-85
2021/12/12 05:41:00;;;;;;;30.90;20.30;;;4.90;99.90;;;;;;4965283;28;20481;-85
2021/12/12 05:43:26;;;;;;;34.83;21.42;;;5.00;99.90;;;;;;4965965;28;20082;-85
2021/12/12 05:45:52;;;;;;;30.90;19.42;;;5.00;99.90;;;;;;4964829;28;20042;-85
2021/12/12 05:48:20;;;;;;;34.45;22.52;;;5.00;99.90;;;;;;4964656;28;20054;-85
2021/12/12 05:50:46;;;;;;;33.05;20.95;;;5.00;99.90;;;;;;4964458;28;20039;-85
2021/12/12 05:53:14;;;;;;;33.33;21.30;;;5.00;99.90;;;;;;4964128;28;20053;-85
2021/12/12 05:55:41;;;;;;;30.73;21.08;;;5.00;99.90;;;;;;4979877;28;20422;-85
2021/12/12 05:58:10;;;;;;;25.83;18.08;;;5.00;99.90;;;;;;4963359;28;20038;-85
2021/12/12 06:00:40;;;;;;;33.90;21.25;;;5.00;99.90;;;;;;4980646;28;20061;-85
2021/12/12 06:03:09;;;;;;;32.42;21.48;;;5.00;99.90;;;;;;4965112;28;20042;-85
2021/12/12 06:05:35;;;;;;;31.85;20.90;;;5.00;99.90;;;;;;4963672;28;20123;-85
2021/12/12 06:08:02;;;;;;;31.48;21.30;;;5.00;99.90;;;;;;4980359;28;20093;-85
2021/12/12 06:10:28;;;;;;;26.95;17.70;;;5.20;99.90;;;;;;4942275;29;20047;-85
2021/12/12 06:12:56;;;;;;;30.55;20.77;;;5.00;99.90;;;;;;4934691;28;20039;-85
2021/12/12 06:15:23;;;;;;;27.27;18.10;;;5.10;99.90;;;;;;4981460;28;20050;-85
2021/12/12 06:17:50;;;;;;;31.20;21.45;;;5.00;99.90;;;;;;4982143;28;20035;-85
2021/12/12 06:20:19;;;;;;;29.02;20.00;;;5.00;99.90;;;;;;4948839;28;20042;-85
2021/12/12 06:22:46;;;;;;;30.98;20.10;;;5.40;99.90;;;;;;4977068;28;20066;-85
2021/12/12 06:25:12;;;;;;;29.15;20.08;;;5.00;99.90;;;;;;4977192;28;20257;-85
2021/12/12 06:27:38;;;;;;;33.92;21.33;;;5.00;99.90;;;;;;4944399;29;20430;-85
2021/12/12 06:30:09;;;;;;;34.65;22.65;;;5.00;99.90;;;;;;4944446;29;20067;-85
2021/12/12 06:32:35;;;;;;;34.33;23.00;;;5.00;99.90;;;;;;4994371;28;20078;-85
2021/12/12 06:35:03;;;;;;;28.92;21.15;;;5.00;99.90;;;;;;4978829;28;20039;-85
2021/12/12 06:37:29;;;;;;;31.52;21.70;;;5.00;99.90;;;;;;4979347;28;20054;-85
2021/12/12 06:39:56;;;;;;;28.98;19.35;;;5.00;99.90;;;;;;4979485;28;20043;-85
2021/12/12 06:42:23;;;;;;;28.95;21.20;;;5.00;99.90;;;;;;4977963;28;20042;-85
2021/12/12 06:44:49;;;;;;;34.03;22.98;;;5.20;99.90;;;;;;4962951;28;20038;-85
2021/12/12 06:47:17;;;;;;;28.98;19.95;;;5.00;99.90;;;;;;4978289;28;20057;-85
2021/12/12 06:49:43;;;;;;;32.05;21.83;;;5.10;99.90;;;;;;4978858;28;20078;-85
2021/12/12 06:52:11;;;;;;;30.30;20.73;;;5.00;99.90;;;;;;4962382;28;20043;-85
2021/12/12 06:54:38;;;;;;;27.05;19.23;;;5.10;99.90;;;;;;4979398;28;20046;-85
2021/12/12 06:57:09;;;;;;;33.42;22.05;;;5.10;99.90;;;;;;4978195;28;20039;-85
2021/12/12 06:59:37;;;;;;;30.67;20.45;;;5.10;99.90;;;;;;4979242;28;20127;-85
2021/12/12 07:02:05;;;;;;;28.38;20.00;;;5.20;99.90;;;;;;4958653;29;20059;-85
2021/12/12 07:04:32;;;;;;;29.98;19.98;;;5.10;99.90;;;;;;4958421;29;20047;-85
2021/12/12 07:07:01;;;;;;;32.35;21.25;;;5.20;99.90;;;;;;4943119;29;20109;-85
2021/12/12 07:09:30;;;;;;;33.25;21.60;;;5.50;99.90;;;;;;4958625;29;20043;-85
2021/12/12 07:11:58;;;;;;;30.38;21.55;;;5.20;99.90;;;;;;4938359;29;20047;-87
2021/12/12 07:14:25;;;;;;;31.67;20.98;;;5.20;99.90;;;;;;4954373;28;20053;-87
2021/12/12 07:16:50;;;;;;;29.02;20.00;;;5.20;99.90;;;;;;4967130;28;20039;-88
2021/12/12 07:19:17;;;;;;;29.77;20.48;;;5.20;99.90;;;;;;4920881;29;20091;-88
2021/12/12 07:21:44;;;;;;;36.00;23.85;;;5.20;99.90;;;;;;4965547;28;20506;-88
2021/12/12 07:24:10;;;;;;;36.75;23.20;;;5.20;99.90;;;;;;4948532;28;20551;-87
2021/12/12 07:26:37;;;;;;;34.00;23.38;;;5.20;99.90;;;;;;4955717;28;20043;-86
2021/12/12 07:29:04;;;;;;;39.72;24.27;;;5.30;99.90;;;;;;4938382;29;20051;-87
2021/12/12 07:31:33;;;;;;;37.22;23.38;;;5.20;99.90;;;;;;4954261;29;20043;-87
2021/12/12 07:34:02;;;;;;;35.88;23.92;;;5.30;99.90;;;;;;4954181;29;20048;-87
2021/12/12 07:36:34;;;;;;;36.65;24.30;;;5.30;99.90;;;;;;4954618;29;20047;-87
2021/12/12 07:39:06;;;;;;;38.55;24.80;;;5.30;99.90;;;;;;4940900;29;20067;-87
2021/12/12 07:41:32;;;;;;;;;;;5.30;99.90;;;;;;4955804;29;20090;-86
2021/12/12 07:44:00;;;;;;;34.58;22.30;;;5.30;99.90;;;;;;4950559;28;19922;-86
2021/12/12 07:46:27;;;;;;;35.45;23.40;;;5.40;99.90;;;;;;4936052;28;20039;-86
2021/12/12 07:48:54;;;;;;;38.55;23.70;;;5.40;99.90;;;;;;4967555;28;20152;-85
2021/12/12 07:51:21;;;;;;;40.10;25.92;;;5.40;99.90;;;;;;4951809;28;20075;-87
2021/12/12 07:53:52;;;;;;;37.65;23.92;;;5.40;99.90;;;;;;4958607;28;20097;-86
2021/12/12 07:56:19;;;;;;;36.83;24.08;;;5.40;99.90;;;;;;4955355;28;20091;-86
2021/12/12 07:58:46;;;;;;;34.58;23.45;;;5.50;99.90;;;;;;4924859;29;20035;-86
2021/12/12 08:01:13;;;;;;;36.47;23.63;;;5.50;99.90;;;;;;4971224;28;20054;-86
2021/12/12 08:03:40;;;;;;;36.97;23.67;;;5.60;99.90;;;;;;4935669;29;20630;-84
2021/12/12 08:06:08;;;;;;;41.10;25.02;;;5.60;99.90;;;;;;4971723;28;20497;-85
2021/12/12 08:08:34;;;;;;;37.42;24.10;;;5.50;99.90;;;;;;4971739;28;20126;-84
2021/12/12 08:11:02;;;;;;;37.58;24.35;;;5.50;99.90;;;;;;4954879;29;20050;-84
2021/12/12 08:13:29;;;;;;;37.53;24.52;;;5.60;99.90;;;;;;4969365;28;20166;-84
2021/12/12 08:15:56;;;;;;;36.50;23.60;;;5.70;99.90;;;;;;4955565;29;20041;-85
2021/12/12 08:18:22;;;;;;;37.53;24.05;;;5.70;99.90;;;;;;4956523;29;20027;-86
2021/12/12 08:20:50;;;;;;;33.20;21.58;;;5.70;99.90;;;;;;4955557;28;20035;-85
2021/12/12 08:23:17;;;;;;;34.30;22.50;;;5.80;99.90;;;;;;4972285;28;20074;-84
2021/12/12 08:25:46;;;;;;;35.13;22.70;;;5.70;99.90;;;;;;4954970;28;20051;-84
2021/12/12 08:28:14;;;;;;;32.42;21.33;;;5.70;99.90;;;;;;4955203;29;20133;-85
2021/12/12 08:30:41;;;;;;;36.10;23.92;;;5.70;99.90;;;;;;4957364;28;20059;-85
2021/12/12 08:33:07;;;;;;;36.90;22.65;;;5.70;99.90;;;;;;4971244;28;20039;-85
2021/12/12 08:35:34;;;;;;;38.72;23.27;;;5.70;99.90;;;;;;4941685;29;20375;-85
2021/12/12 08:38:02;;;;;;;35.13;23.15;;;5.80;99.90;;;;;;4955172;28;20047;-85
2021/12/12 08:40:31;;;;;;;38.88;23.90;;;5.80;99.90;;;;;;4924562;29;20491;-87
2021/12/12 08:42:57;;;;;;;41.55;24.98;;;5.80;99.90;;;;;;4955429;29;20037;-87
2021/12/12 08:45:28;;;;;;;38.90;24.17;;;5.80;99.90;;;;;;4939575;29;20525;-87
2021/12/12 08:47:55;;;;;;;44.38;26.80;;;5.80;99.90;;;;;;4955751;29;20550;-86
2021/12/12 08:50:24;;;;;;;45.47;28.08;;;5.80;99.90;;;;;;4925035;29;20043;-88
2021/12/12 08:52:52;;;;;;;50.50;29.55;;;5.90;99.90;;;;;;4956950;29;20075;-88
2021/12/12 08:55:23;;;;;;;47.30;27.48;;;5.80;99.90;;;;;;4952484;29;20071;-86
2021/12/12 09:00:24;;;;;;;44.15;27.33;;;5.90;99.90;;;;;;4962043;28;20059;-87
2021/12/12 09:02:52;;;;;;;46.53;27.55;;;5.90;99.90;;;;;;4976793;28;20041;-87
2021/12/12 09:05:23;;;;;;;52.78;29.13;;;5.90;99.90;;;;;;4959516;28;20045;-87
2021/12/12 09:07:51;;;;;;;38.95;23.45;;;6.00;99.90;;;;;;4959797;28;20130;-87
2021/12/12 09:10:28;;;;;;;39.75;23.58;;;6.00;99.90;;;;;;4975764;28;20541;-87
2021/12/12 09:13:06;;;;;;;44.67;25.67;;;6.10;99.90;;;;;;4958751;28;20434;-87
2021/12/12 09:15:49;;;;;;;44.67;26.98;;;6.10;99.90;;;;;;4957079;28;20050;-87
2021/12/12 09:18:28;;;;;;;45.22;26.15;;;6.10;99.90;;;;;;4991763;28;20043;-88
2021/12/12 09:21:29;;;;;;;43.53;25.95;;;6.10;99.90;;;;;;4991692;28;20130;-88
2021/12/12 09:24:06;;;;;;;47.97;27.60;;;6.10;99.90;;;;;;4991822;28;20061;-88
2021/12/12 09:26:36;;;;;;;45.95;27.00;;;6.20;99.90;;;;;;4988094;28;20121;-88
2021/12/12 09:29:22;;;;;;;47.00;26.83;;;6.20;99.90;;;;;;4968686;28;20049;-88
2021/12/12 09:32:13;;;;;;;51.53;28.77;;;6.20;99.90;;;;;;4956550;29;20035;-88
2021/12/12 09:34:48;;;;;;;49.43;27.87;;;6.30;99.90;;;;;;4946312;28;20050;-88
2021/12/12 09:37:27;;;;;;;55.08;29.35;;;6.30;99.90;;;;;;4959398;28;20077;-88
2021/12/12 09:40:00;;;;;;;49.50;27.23;;;6.30;99.90;;;;;;4959592;28;20038;-88
2021/12/12 09:42:46;;;;;;;48.95;26.17;;;6.30;99.90;;;;;;4958878;28;20039;-88
2021/12/12 09:45:37;;;;;;;50.55;27.27;;;6.40;99.90;;;;;;4959180;28;20042;-88
2021/12/12 09:51:14;;;;;;;48.17;25.92;;;6.40;99.90;;;;;;4975198;28;20053;-88
2021/12/12 09:54:15;;;;;;;50.10;27.50;;;6.40;99.90;;;;;;4975397;28;20046;-88
2021/12/12 09:56:59;;;;;;;51.35;27.65;;;6.50;99.90;;;;;;4974885;28;20466;-88
2021/12/12 10:00:00;;;;;;;59.83;29.33;;;6.50;99.90;;;;;;4975342;28;20046;-88
2021/12/12 10:02:38;;;;;;;54.35;28.15;;;6.50;99.90;;;;;;4959314;28;20491;-88
2021/12/12 10:05:41;;;;;;;60.00;30.10;;;6.60;99.90;;;;;;4974740;28;20105;-88
2021/12/12 10:08:30;;;;;;;56.47;28.75;;;6.60;99.90;;;;;;4959600;28;20383;-87
2021/12/12 10:11:21;;;;;;;57.88;29.92;;;6.70;99.90;;;;;;4958420;28;20081;-86
2021/12/12 10:13:56;;;;;;;52.03;26.70;;;6.60;99.90;;;;;;4958409;28;20038;-86
2021/12/12 10:16:33;;;;;;;63.20;30.48;;;6.70;99.90;;;;;;4958405;28;20039;-86
2021/12/12 10:19:30;;;;;;;64.72;31.60;;;6.80;99.90;;;;;;4971653;28;20042;-87
2021/12/12 10:22:15;;;;;;;63.42;31.70;;;6.80;99.90;;;;;;4955241;29;20050;-87
2021/12/12 10:24:46;;;;;;;68.68;32.17;;;6.80;99.90;;;;;;4974571;28;20133;-87
2021/12/12 10:27:14;;;;;;;70.85;33.65;;;6.90;99.90;;;;;;4972815;28;20046;-87
2021/12/12 10:30:05;;;;;;;61.67;31.55;;;6.90;99.90;;;;;;4974456;28;20042;-87
2021/12/12 10:32:37;;;;;;;57.08;29.95;;;7.00;99.90;;;;;;4974243;28;20038;-86
2021/12/12 10:35:17;;;;;;;58.00;29.85;;;7.10;99.90;;;;;;4970294;28;20594;-87
2021/12/12 10:37:48;;;;;;;58.03;30.50;;;7.10;99.90;;;;;;4956777;28;20042;-87
2021/12/12 10:40:21;;;;;;;40.15;20.92;;;7.10;99.90;;;;;;4973856;28;20423;-86
2021/12/12 10:42:52;;;;;;;56.08;29.23;;;7.10;99.90;;;;;;4974166;28;20039;-87
2021/12/12 10:45:24;;;;;;;56.70;28.10;;;7.20;99.90;;;;;;4974404;28;20043;-87
2021/12/12 10:47:56;;;;;;;49.90;27.98;;;7.20;99.90;;;;;;4974174;28;20035;-88
2021/12/12 10:50:34;;;;;;;;;;;7.30;99.90;;;;;;4958794;28;20078;-87
2021/12/12 10:53:20;;;;;;;51.03;27.70;;;7.30;99.90;;;;;;4957803;28;19925;-87
2021/12/12 10:56:01;;;;;;;55.92;29.30;;;7.30;99.90;;;;;;4957197;28;20046;-87
2021/12/12 10:58:35;;;;;;;48.55;25.73;;;7.30;99.90;;;;;;4974126;28;20066;-87
2021/12/12 11:01:22;;;;;;;53.33;27.65;;;7.40;99.90;;;;;;4953176;28;20141;-87
2021/12/12 11:04:11;;;;;;;53.88;27.42;;;7.40;99.90;;;;;;4954489;29;20130;-87
2021/12/12 11:06:43;;;;;;;48.78;26.77;;;7.50;99.90;;;;;;4954658;28;20114;-87
2021/12/12 11:09:29;;;;;;;52.35;27.00;;;7.50;99.90;;;;;;4954691;29;20039;-87
2021/12/12 11:12:21;;;;;;;50.45;26.73;;;7.50;99.90;;;;;;4954211;29;20043;-86
2021/12/12 11:15:04;;;;;;;49.03;26.98;;;7.60;99.90;;;;;;4970247;28;20043;-87
2021/12/12 11:17:36;;;;;;;48.40;25.20;;;7.60;99.90;;;;;;4938547;29;20514;-87
2021/12/12 11:20:25;;;;;;;46.55;25.58;;;7.70;99.90;;;;;;4954221;29;20054;-87
2021/12/12 11:22:59;;;;;;;42.55;24.13;;;7.70;99.90;;;;;;4954480;29;20480;-86
2021/12/12 11:25:40;;;;;;;40.35;23.33;;;7.80;99.90;;;;;;4953876;29;20700;-87
2021/12/12 11:28:25;;;;;;;45.15;25.88;;;7.80;99.90;;;;;;4958470;28;20039;-87
2021/12/12 11:30:56;;;;;;;38.20;23.95;;;7.90;99.90;;;;;;4957511;28;20101;-86
2021/12/12 11:33:24;;;;;;;42.10;25.30;;;7.90;99.90;;;;;;4973843;28;20046;-89
2021/12/12 11:35:55;;;;;;;40.60;23.65;;;7.80;99.90;;;;;;4973502;28;20043;-88
2021/12/12 11:38:38;;;;;;;34.67;21.73;;;7.80;99.90;;;;;;4973113;28;20073;-88
2021/12/12 11:41:38;;;;;;;34.75;21.63;;;7.80;99.90;;;;;;4972862;28;20049;-88
2021/12/12 11:44:21;;;;;;;33.00;20.88;;;7.90;99.90;;;;;;4950485;28;20101;-85
2021/12/12 11:46:53;;;;;;;39.92;22.33;;;7.90;99.90;;;;;;4952456;28;20062;-85
2021/12/12 11:49:27;;;;;;;38.50;23.20;;;7.90;99.90;;;;;;4938515;29;20065;-84
2021/12/12 11:52:19;;;;;;;37.88;22.48;;;7.90;99.90;;;;;;4956386;28;21094;-84
2021/12/12 11:54:57;;;;;;;40.55;22.83;;;8.00;99.90;;;;;;4951635;28;20054;-84
2021/12/12 11:57:32;;;;;;;40.85;23.58;;;8.00;99.90;;;;;;4965617;28;20423;-84
2021/12/12 12:00:19;;;;;;;39.15;22.35;;;8.00;99.90;;;;;;4967865;28;20075;-84
2021/12/12 12:02:56;;;;;;;35.58;21.25;;;8.10;99.90;;;;;;4968794;28;20043;-85
2021/12/12 12:05:25;;;;;;;34.78;21.00;;;8.10;99.90;;;;;;4952641;29;20070;-85
2021/12/12 12:08:20;;;;;;;38.67;22.20;;;8.10;99.90;;;;;;4943563;29;20120;-86
2021/12/12 12:11:11;;;;;;;33.92;19.65;;;8.10;99.90;;;;;;4950092;29;20124;-86
2021/12/12 12:14:07;;;;;;;37.83;21.55;;;8.20;99.90;;;;;;4945807;29;20082;-85
2021/12/12 12:16:59;;;;;;;35.90;21.13;;;8.20;99.90;;;;;;4952938;29;20083;-86
2021/12/12 12:19:44;;;;;;;34.60;21.30;;;8.20;99.90;;;;;;4950412;29;20046;-86
2021/12/12 12:22:50;;;;;;;34.28;20.45;;;8.20;99.90;;;;;;4935924;29;20039;-86
2021/12/12 12:29:04;;;;;;;35.33;21.00;;;8.30;99.90;;;;;;4942381;29;20043;-87
2021/12/12 12:31:36;;;;;;;37.78;20.98;;;8.30;99.90;;;;;;4952381;29;20043;-86
2021/12/12 12:34:17;;;;;;;30.95;19.58;;;8.30;99.90;;;;;;4945768;29;20467;-86
2021/12/12 12:37:24;;;;;;;36.58;20.70;;;8.30;99.90;;;;;;4966230;28;20121;-86
2021/12/12 12:40:28;;;;;;;35.50;20.48;;;8.30;99.90;;;;;;4939127;29;20047;-86
2021/12/12 12:43:44;;;;;;;37.72;20.90;;;8.30;99.90;;;;;;4946709;29;20399;-86
2021/12/12 12:46:48;;;;;;;44.15;23.58;;;8.30;99.90;;;;;;4935664;29;20094;-86
2021/12/12 12:49:51;;;;;;;45.70;23.90;;;8.40;99.90;;;;;;4968725;28;20039;-86
2021/12/12 12:52:45;;;;;;;40.72;22.83;;;8.30;99.90;;;;;;4956906;29;20390;-86
2021/12/12 12:55:32;;;;;;;39.47;21.50;;;8.40;99.90;;;;;;4940007;29;20047;-86
2021/12/12 12:58:25;;;;;;;43.83;23.67;;;8.40;99.90;;;;;;4940774;29;20062;-87
2021/12/12 13:01:02;;;;;;;44.45;24.02;;;8.40;99.90;;;;;;4961963;28;20051;-87
2021/12/12 13:04:07;;;;;;;57.80;26.98;;;8.40;99.90;;;;;;4976059;28;20039;-87
2021/12/12 13:07:04;;;;;;;50.00;25.35;;;8.40;99.90;;;;;;4959379;28;20047;-87
2021/12/12 13:09:48;;;;;;;52.55;25.77;;;8.40;99.90;;;;;;4959942;28;20450;-87
2021/12/12 13:12:43;;;;;;;59.03;27.77;;;8.40;99.90;;;;;;4975467;28;20456;-87
2021/12/12 13:15:29;;;;;;;54.85;26.83;;;8.50;99.90;;;;;;4951717;28;20047;-87
2021/12/12 13:18:06;;;;;;;54.75;26.83;;;8.50;99.90;;;;;;4977187;28;20050;-87
2021/12/12 13:20:40;;;;;;;59.97;28.00;;;8.50;99.90;;;;;;4960420;28;20043;-86
2021/12/12 13:23:10;;;;;;;64.28;28.08;;;8.50;99.90;;;;;;4959093;28;20050;-86
2021/12/12 13:25:59;;;;;;;50.60;25.38;;;8.50;99.90;;;;;;4961950;28;20038;-86
2021/12/12 13:29:14;;;;;;;48.70;23.88;;;8.60;99.90;;;;;;4975692;28;20143;-85
2021/12/12 13:31:53;;;;;;;66.40;29.67;;;8.60;99.90;;;;;;4953833;29;20122;-86
2021/12/12 13:34:27;;;;;;;61.08;27.35;;;8.60;99.90;;;;;;4967835;28;20035;-86
2021/12/12 13:37:18;;;;;;;53.28;26.08;;;8.60;99.90;;;;;;4975167;28;20039;-85